sensor_id;sensor_type;location;lat;lon;timestamp;temperature;humidity
1347;DHT22;667;48.796;9.480;2022-08-11T00:00:02;20.50;53.50
1347;DHT22;667;48.796;9.480;2022-08-11T00:02:45;20.50;53.00
1347;DHT22;667;48.796;9.480;2022-08-11T00:05:15;20.40;53.00
1347;DHT22;667;48.796;9.480;2022-08-11T00:07:55;20.40;53.20
1347;DHT22;667;48.796;9.480;2022-08-11T00:10:27;20.40;53.20
1347;DHT22;667;48.796;9.480;2022-08-11T00:12:59;20.40;53.10
1347;DHT22;667;48.796;9.480;2022-08-11T00:15:28;20.40;53.10
1347;DHT22;667;48.796;9.480;2022-08-11T00:18:02;20.30;53.10
1347;DHT22;667;48.796;9.480;2022-08-11T00:20:30;20.30;53.20
1347;DHT22;667;48.796;9.480;2022-08-11T00:23:01;20.20;53.30
1347;DHT22;667;48.796;9.480;2022-08-11T00:25:29;20.20;53.50
1347;DHT22;667;48.796;9.480;2022-08-11T00:27:56;20.20;53.40
1347;DHT22;667;48.796;9.480;2022-08-11T00:30:21;20.20;53.50
1347;DHT22;667;48.796;9.480;2022-08-11T00:32:57;20.10;53.60
1347;DHT22;667;48.796;9.480;2022-08-11T00:35:27;20.10;53.70
1347;DHT22;667;48.796;9.480;2022-08-11T00:37:55;20.10;53.80
1347;DHT22;667;48.796;9.480;2022-08-11T00:40:36;20.00;53.80
1347;DHT22;667;48.796;9.480;2022-08-11T01:19:55;19.60;54.50
1347;DHT22;667;48.796;9.480;2022-08-11T01:22:38;19.50;54.60
1347;DHT22;667;48.796;9.480;2022-08-11T01:34:39;19.40;55.50
1347;DHT22;667;48.796;9.480;2022-08-11T01:48:06;19.40;55.40
1347;DHT22;667;48.796;9.480;2022-08-11T11:22:55;30.40;28.30
1347;DHT22;667;48.796;9.480;2022-08-11T11:30:44;30.30;28.90
1347;DHT22;667;48.796;9.480;2022-08-11T11:33:56;30.30;28.70
1347;DHT22;667;48.796;9.480;2022-08-11T11:36:17;30.30;28.80
1347;DHT22;667;48.796;9.480;2022-08-11T11:38:48;30.40;29.00
1347;DHT22;667;48.796;9.480;2022-08-11T11:41:13;30.40;28.70
1347;DHT22;667;48.796;9.480;2022-08-11T11:43:49;30.50;28.70
1347;DHT22;667;48.796;9.480;2022-08-11T11:46:15;30.50;28.80
1347;DHT22;667;48.796;9.480;2022-08-11T11:48:42;30.50;28.80
1347;DHT22;667;48.796;9.480;2022-08-11T11:51:08;30.60;28.40
1347;DHT22;667;48.796;9.480;2022-08-11T11:53:40;30.70;28.50
1347;DHT22;667;48.796;9.480;2022-08-11T11:56:07;30.70;28.30
1347;DHT22;667;48.796;9.480;2022-08-11T11:58:33;30.70;28.20
1347;DHT22;667;48.796;9.480;2022-08-11T12:01:18;30.80;28.50
1347;DHT22;667;48.796;9.480;2022-08-11T12:03:49;30.80;28.30
1347;DHT22;667;48.796;9.480;2022-08-11T12:06:17;30.80;28.00
1347;DHT22;667;48.796;9.480;2022-08-11T12:08:43;30.80;28.00
1347;DHT22;667;48.796;9.480;2022-08-11T12:11:12;30.80;28.10
1347;DHT22;667;48.796;9.480;2022-08-11T12:14:01;30.90;28.10
1347;DHT22;667;48.796;9.480;2022-08-11T12:16:29;30.90;28.00
1347;DHT22;667;48.796;9.480;2022-08-11T12:18:58;30.90;28.00
1347;DHT22;667;48.796;9.480;2022-08-11T12:21:25;30.90;28.10
1347;DHT22;667;48.796;9.480;2022-08-11T12:23:54;31.00;28.30
1347;DHT22;667;48.796;9.480;2022-08-11T12:26:39;31.00;28.00
1347;DHT22;667;48.796;9.480;2022-08-11T12:29:15;31.00;27.90
1347;DHT22;667;48.796;9.480;2022-08-11T12:31:42;31.00;27.80
1347;DHT22;667;48.796;9.480;2022-08-11T12:34:11;30.90;27.30
1347;DHT22;667;48.796;9.480;2022-08-11T12:36:40;31.00;27.60
1347;DHT22;667;48.796;9.480;2022-08-11T12:39:08;31.00;27.70
1347;DHT22;667;48.796;9.480;2022-08-11T12:41:36;31.10;27.40
1347;DHT22;667;48.796;9.480;2022-08-11T12:44:24;31.00;27.10
1347;DHT22;667;48.796;9.480;2022-08-11T12:47:09;31.00;27.00
1347;DHT22;667;48.796;9.480;2022-08-11T12:49:37;31.00;27.50
1347;DHT22;667;48.796;9.480;2022-08-11T12:52:26;31.10;27.60
1347;DHT22;667;48.796;9.480;2022-08-11T12:55:01;31.20;27.80
1347;DHT22;667;48.796;9.480;2022-08-11T12:57:37;31.20;27.40
1347;DHT22;667;48.796;9.480;2022-08-11T13:00:23;31.20;27.20
1347;DHT22;667;48.796;9.480;2022-08-11T13:03:09;31.20;27.20
1347;DHT22;667;48.796;9.480;2022-08-11T13:05:57;31.10;26.90
1347;DHT22;667;48.796;9.480;2022-08-11T13:08:25;31.20;27.20
1347;DHT22;667;48.796;9.480;2022-08-11T13:10:52;31.20;27.00
1347;DHT22;667;48.796;9.480;2022-08-11T13:13:39;31.20;27.00
1347;DHT22;667;48.796;9.480;2022-08-11T13:16:07;31.10;27.20
1347;DHT22;667;48.796;9.480;2022-08-11T13:18:34;31.20;26.90
1347;DHT22;667;48.796;9.480;2022-08-11T13:21:00;31.20;27.00
1347;DHT22;667;48.796;9.480;2022-08-11T13:23:27;31.10;26.90
1347;DHT22;667;48.796;9.480;2022-08-11T13:25:54;31.00;26.80
1347;DHT22;667;48.796;9.480;2022-08-11T13:28:23;31.00;26.90
1347;DHT22;667;48.796;9.480;2022-08-11T13:30:49;31.00;27.20
1347;DHT22;667;48.796;9.480;2022-08-11T13:33:47;31.00;26.80
1347;DHT22;667;48.796;9.480;2022-08-11T13:36:19;31.00;26.50
1347;DHT22;667;48.796;9.480;2022-08-11T13:38:46;31.00;26.70
1347;DHT22;667;48.796;9.480;2022-08-11T13:41:12;31.00;27.10
1347;DHT22;667;48.796;9.480;2022-08-11T13:43:58;31.00;27.20
1347;DHT22;667;48.796;9.480;2022-08-11T13:46:24;31.00;26.80
1347;DHT22;667;48.796;9.480;2022-08-11T13:48:53;31.20;26.90
1347;DHT22;667;48.796;9.480;2022-08-11T13:51:20;31.20;26.60
1347;DHT22;667;48.796;9.480;2022-08-11T13:54:09;31.20;26.50
1347;DHT22;667;48.796;9.480;2022-08-11T13:56:37;31.20;26.50
1347;DHT22;667;48.796;9.480;2022-08-11T13:59:05;31.20;26.40
1347;DHT22;667;48.796;9.480;2022-08-11T14:01:37;31.20;26.50
1347;DHT22;667;48.796;9.480;2022-08-11T14:04:12;31.10;26.50
1347;DHT22;667;48.796;9.480;2022-08-11T14:06:44;31.10;26.80
1347;DHT22;667;48.796;9.480;2022-08-11T14:09:11;31.10;26.40
1347;DHT22;667;48.796;9.480;2022-08-11T14:11:40;31.00;26.20
1347;DHT22;667;48.796;9.480;2022-08-11T14:14:30;31.00;26.20
1347;DHT22;667;48.796;9.480;2022-08-11T14:17:03;30.80;25.80
1347;DHT22;667;48.796;9.480;2022-08-11T14:19:30;30.80;26.30
1347;DHT22;667;48.796;9.480;2022-08-11T14:21:58;30.80;26.30
1347;DHT22;667;48.796;9.480;2022-08-11T14:24:35;30.80;26.30
1347;DHT22;667;48.796;9.480;2022-08-11T14:27:02;30.90;26.70
1347;DHT22;667;48.796;9.480;2022-08-11T14:29:28;30.90;26.70
1347;DHT22;667;48.796;9.480;2022-08-11T14:31:56;30.90;26.40
1347;DHT22;667;48.796;9.480;2022-08-11T14:34:25;31.00;26.60
1347;DHT22;667;48.796;9.480;2022-08-11T14:36:53;31.00;26.60
1347;DHT22;667;48.796;9.480;2022-08-11T14:39:24;31.00;26.20
1347;DHT22;667;48.796;9.480;2022-08-11T14:41:56;31.00;26.30
1347;DHT22;667;48.796;9.480;2022-08-11T14:44:49;31.00;26.30
1347;DHT22;667;48.796;9.480;2022-08-11T14:47:36;31.00;26.00
1347;DHT22;667;48.796;9.480;2022-08-11T14:50:03;31.00;26.20
1347;DHT22;667;48.796;9.480;2022-08-11T14:52:32;31.00;26.20
1347;DHT22;667;48.796;9.480;2022-08-11T14:55:00;30.90;26.00
1347;DHT22;667;48.796;9.480;2022-08-11T14:57:46;30.90;25.90
1347;DHT22;667;48.796;9.480;2022-08-11T15:00:13;30.90;26.20
1347;DHT22;667;48.796;9.480;2022-08-11T15:02:40;30.90;26.50
1347;DHT22;667;48.796;9.480;2022-08-11T15:05:26;30.80;26.30
1347;DHT22;667;48.796;9.480;2022-08-11T15:07:54;30.80;26.50
1347;DHT22;667;48.796;9.480;2022-08-11T15:10:21;30.70;26.60
1347;DHT22;667;48.796;9.480;2022-08-11T15:12:47;30.70;26.80
1347;DHT22;667;48.796;9.480;2022-08-11T15:15:15;30.70;26.80
1347;DHT22;667;48.796;9.480;2022-08-11T15:18:02;30.70;26.70
1347;DHT22;667;48.796;9.480;2022-08-11T15:20:29;30.70;26.80
1347;DHT22;667;48.796;9.480;2022-08-11T15:23:14;30.70;27.20
1347;DHT22;667;48.796;9.480;2022-08-11T15:26:00;30.70;26.80
1347;DHT22;667;48.796;9.480;2022-08-11T15:28:31;30.50;26.90
1347;DHT22;667;48.796;9.480;2022-08-11T15:31:16;30.50;27.00
1347;DHT22;667;48.796;9.480;2022-08-11T15:34:07;30.50;26.90
1347;DHT22;667;48.796;9.480;2022-08-11T15:36:58;30.40;27.00
1347;DHT22;667;48.796;9.480;2022-08-11T15:39:53;30.40;26.90
1347;DHT22;667;48.796;9.480;2022-08-11T15:42:45;30.40;27.00
1347;DHT22;667;48.796;9.480;2022-08-11T15:45:31;30.40;27.00
1347;DHT22;667;48.796;9.480;2022-08-11T15:48:17;30.30;26.90
1347;DHT22;667;48.796;9.480;2022-08-11T15:50:51;30.30;26.90
1347;DHT22;667;48.796;9.480;2022-08-11T15:55:47;30.20;27.30
1347;DHT22;667;48.796;9.480;2022-08-11T15:58:13;30.30;27.10
1347;DHT22;667;48.796;9.480;2022-08-11T16:01:00;30.30;26.50
1347;DHT22;667;48.796;9.480;2022-08-11T16:03:53;30.20;26.80
1347;DHT22;667;48.796;9.480;2022-08-11T16:06:58;30.20;26.90
1347;DHT22;667;48.796;9.480;2022-08-11T16:12:02;30.20;27.20
1347;DHT22;667;48.796;9.480;2022-08-11T16:14:32;30.10;27.10
1347;DHT22;667;48.796;9.480;2022-08-11T16:17:18;30.10;26.90
1347;DHT22;667;48.796;9.480;2022-08-11T16:19:47;30.00;27.10
1347;DHT22;667;48.796;9.480;2022-08-11T16:22:22;29.90;26.90
1347;DHT22;667;48.796;9.480;2022-08-11T16:24:57;29.90;27.10
1347;DHT22;667;48.796;9.480;2022-08-11T16:27:23;29.90;27.00
1347;DHT22;667;48.796;9.480;2022-08-11T16:29:50;29.90;27.30
1347;DHT22;667;48.796;9.480;2022-08-11T16:32:21;29.90;27.40
1347;DHT22;667;48.796;9.480;2022-08-11T16:34:59;29.80;27.50
1347;DHT22;667;48.796;9.480;2022-08-11T16:37:44;29.80;27.60
1347;DHT22;667;48.796;9.480;2022-08-11T16:40:30;29.80;27.50
1347;DHT22;667;48.796;9.480;2022-08-11T16:42:57;29.80;27.60
1347;DHT22;667;48.796;9.480;2022-08-11T16:45:42;29.80;27.50
1347;DHT22;667;48.796;9.480;2022-08-11T16:48:33;29.60;27.40
1347;DHT22;667;48.796;9.480;2022-08-11T16:50:59;29.70;27.70
1347;DHT22;667;48.796;9.480;2022-08-11T16:53:28;29.70;28.00
1347;DHT22;667;48.796;9.480;2022-08-11T16:55:56;29.70;28.10
1347;DHT22;667;48.796;9.480;2022-08-11T16:58:23;29.70;28.10
1347;DHT22;667;48.796;9.480;2022-08-11T17:01:08;29.60;27.80
1347;DHT22;667;48.796;9.480;2022-08-11T17:03:41;29.50;27.70
1347;DHT22;667;48.796;9.480;2022-08-11T17:06:26;29.50;27.90
1347;DHT22;667;48.796;9.480;2022-08-11T17:09:14;29.50;27.70
1347;DHT22;667;48.796;9.480;2022-08-11T17:12:01;29.50;27.60
1347;DHT22;667;48.796;9.480;2022-08-11T17:14:53;29.50;28.40
1347;DHT22;667;48.796;9.480;2022-08-11T17:17:35;29.50;28.00
1347;DHT22;667;48.796;9.480;2022-08-11T17:20:04;29.40;27.90
1347;DHT22;667;48.796;9.480;2022-08-11T17:22:35;29.40;28.00
1347;DHT22;667;48.796;9.480;2022-08-11T17:25:23;29.40;27.60
1347;DHT22;667;48.796;9.480;2022-08-11T17:27:51;29.30;27.90
1347;DHT22;667;48.796;9.480;2022-08-11T17:30:18;29.30;28.00
1347;DHT22;667;48.796;9.480;2022-08-11T17:32:49;29.30;27.60
1347;DHT22;667;48.796;9.480;2022-08-11T17:35:40;29.10;27.60
1347;DHT22;667;48.796;9.480;2022-08-11T17:40:37;29.10;28.00
1347;DHT22;667;48.796;9.480;2022-08-11T17:43:06;29.10;28.30
1347;DHT22;667;48.796;9.480;2022-08-11T17:45:50;29.10;28.20
1347;DHT22;667;48.796;9.480;2022-08-11T17:48:42;29.10;28.10
1347;DHT22;667;48.796;9.480;2022-08-11T17:51:11;29.10;28.40
1347;DHT22;667;48.796;9.480;2022-08-11T17:53:58;29.00;28.70
1347;DHT22;667;48.796;9.480;2022-08-11T17:56:43;29.00;28.60
1347;DHT22;667;48.796;9.480;2022-08-11T17:59:28;28.90;28.80
1347;DHT22;667;48.796;9.480;2022-08-11T18:02:13;28.90;29.00
1347;DHT22;667;48.796;9.480;2022-08-11T18:04:58;28.90;29.20
1347;DHT22;667;48.796;9.480;2022-08-11T18:07:24;28.80;29.60
1347;DHT22;667;48.796;9.480;2022-08-11T18:10:09;28.80;29.90
1347;DHT22;667;48.796;9.480;2022-08-11T18:12:54;28.80;30.10
1347;DHT22;667;48.796;9.480;2022-08-11T18:15:42;28.70;30.00
1347;DHT22;667;48.796;9.480;2022-08-11T18:18:27;28.60;31.00
1347;DHT22;667;48.796;9.480;2022-08-11T18:21:14;28.50;32.80
1347;DHT22;667;48.796;9.480;2022-08-11T18:24:04;28.40;34.10
1347;DHT22;667;48.796;9.480;2022-08-11T18:26:51;28.30;35.10
1347;DHT22;667;48.796;9.480;2022-08-11T18:29:39;28.20;35.80
1347;DHT22;667;48.796;9.480;2022-08-11T18:32:26;28.00;36.20
1347;DHT22;667;48.796;9.480;2022-08-11T18:35:12;27.80;36.20
1347;DHT22;667;48.796;9.480;2022-08-11T18:37:58;27.60;36.20
1347;DHT22;667;48.796;9.480;2022-08-11T18:40:47;27.40;36.60
1347;DHT22;667;48.796;9.480;2022-08-11T18:43:34;27.20;37.20
1347;DHT22;667;48.796;9.480;2022-08-11T18:46:22;27.00;38.00
1347;DHT22;667;48.796;9.480;2022-08-11T18:49:13;26.90;38.10
1347;DHT22;667;48.796;9.480;2022-08-11T18:51:58;26.70;38.10
1347;DHT22;667;48.796;9.480;2022-08-11T18:54:46;26.60;38.20
1347;DHT22;667;48.796;9.480;2022-08-11T18:57:33;26.50;38.70
1347;DHT22;667;48.796;9.480;2022-08-11T19:00:18;26.30;38.80
1347;DHT22;667;48.796;9.480;2022-08-11T19:03:04;26.20;38.90
1347;DHT22;667;48.796;9.480;2022-08-11T19:05:50;26.10;39.00
1347;DHT22;667;48.796;9.480;2022-08-11T19:08:40;26.00;39.10
1347;DHT22;667;48.796;9.480;2022-08-11T19:11:26;25.90;39.40
1347;DHT22;667;48.796;9.480;2022-08-11T19:14:12;25.80;39.50
1347;DHT22;667;48.796;9.480;2022-08-11T19:17:01;25.70;39.80
1347;DHT22;667;48.796;9.480;2022-08-11T19:19:47;25.60;40.00
1347;DHT22;667;48.796;9.480;2022-08-11T19:22:33;25.50;40.10
1347;DHT22;667;48.796;9.480;2022-08-11T19:25:19;25.40;40.30
1347;DHT22;667;48.796;9.480;2022-08-11T19:28:06;25.30;40.50
1347;DHT22;667;48.796;9.480;2022-08-11T19:30:52;25.20;40.90
1347;DHT22;667;48.796;9.480;2022-08-11T19:33:38;25.10;41.30
1347;DHT22;667;48.796;9.480;2022-08-11T19:36:24;25.10;41.50
1347;DHT22;667;48.796;9.480;2022-08-11T19:39:10;25.00;41.80
1347;DHT22;667;48.796;9.480;2022-08-11T19:41:56;24.90;41.70
1347;DHT22;667;48.796;9.480;2022-08-11T19:44:42;24.80;41.60
1347;DHT22;667;48.796;9.480;2022-08-11T19:47:27;24.70;41.70
1347;DHT22;667;48.796;9.480;2022-08-11T19:50:12;24.70;42.00
1347;DHT22;667;48.796;9.480;2022-08-11T19:52:58;24.60;42.20
1347;DHT22;667;48.796;9.480;2022-08-11T19:55:47;24.60;42.50
1347;DHT22;667;48.796;9.480;2022-08-11T19:58:34;24.50;42.80
1347;DHT22;667;48.796;9.480;2022-08-11T20:01:19;24.40;42.80
1347;DHT22;667;48.796;9.480;2022-08-11T20:04:03;24.30;42.80
1347;DHT22;667;48.796;9.480;2022-08-11T20:06:49;24.30;43.00
1347;DHT22;667;48.796;9.480;2022-08-11T20:09:34;24.20;43.40
1347;DHT22;667;48.796;9.480;2022-08-11T20:12:20;24.20;44.00
1347;DHT22;667;48.796;9.480;2022-08-11T20:15:06;24.10;43.80
1347;DHT22;667;48.796;9.480;2022-08-11T20:17:51;24.00;44.10
1347;DHT22;667;48.796;9.480;2022-08-11T20:20:37;23.90;44.60
1347;DHT22;667;48.796;9.480;2022-08-11T20:23:22;23.80;44.40
1347;DHT22;667;48.796;9.480;2022-08-11T20:26:07;23.70;44.50
1347;DHT22;667;48.796;9.480;2022-08-11T20:28:53;23.70;44.90
1347;DHT22;667;48.796;9.480;2022-08-11T20:31:38;23.60;45.10
1347;DHT22;667;48.796;9.480;2022-08-11T20:34:24;23.60;45.30
1347;DHT22;667;48.796;9.480;2022-08-11T20:37:09;23.50;45.20
1347;DHT22;667;48.796;9.480;2022-08-11T20:39:55;23.40;45.10
1347;DHT22;667;48.796;9.480;2022-08-11T20:42:41;23.40;45.40
1347;DHT22;667;48.796;9.480;2022-08-11T20:45:26;23.30;45.90
1347;DHT22;667;48.796;9.480;2022-08-11T20:48:12;23.30;45.60
1347;DHT22;667;48.796;9.480;2022-08-11T20:50:57;23.20;45.80
1347;DHT22;667;48.796;9.480;2022-08-11T20:53:44;23.10;45.80
1347;DHT22;667;48.796;9.480;2022-08-11T20:56:31;23.10;46.00
1347;DHT22;667;48.796;9.480;2022-08-11T20:59:19;23.00;46.10
1347;DHT22;667;48.796;9.480;2022-08-11T21:02:06;23.00;46.30
1347;DHT22;667;48.796;9.480;2022-08-11T21:04:52;22.90;46.30
1347;DHT22;667;48.796;9.480;2022-08-11T21:07:40;22.80;46.30
1347;DHT22;667;48.796;9.480;2022-08-11T21:10:29;22.80;46.30
1347;DHT22;667;48.796;9.480;2022-08-11T21:13:15;22.70;46.20
1347;DHT22;667;48.796;9.480;2022-08-11T21:16:05;22.70;46.30
1347;DHT22;667;48.796;9.480;2022-08-11T21:18:51;22.70;46.30
1347;DHT22;667;48.796;9.480;2022-08-11T21:21:36;22.70;46.40
1347;DHT22;667;48.796;9.480;2022-08-11T21:24:21;22.60;46.20
1347;DHT22;667;48.796;9.480;2022-08-11T21:27:08;22.50;46.00
1347;DHT22;667;48.796;9.480;2022-08-11T21:29:54;22.50;46.00
1347;DHT22;667;48.796;9.480;2022-08-11T21:32:41;22.50;46.50
1347;DHT22;667;48.796;9.480;2022-08-11T21:35:27;22.40;46.80
1347;DHT22;667;48.796;9.480;2022-08-11T21:38:13;22.40;46.90
1347;DHT22;667;48.796;9.480;2022-08-11T21:40:58;22.30;46.90
1347;DHT22;667;48.796;9.480;2022-08-11T21:43:46;22.20;47.10
1347;DHT22;667;48.796;9.480;2022-08-11T21:46:31;22.20;47.50
1347;DHT22;667;48.796;9.480;2022-08-11T21:49:17;22.20;47.60
1347;DHT22;667;48.796;9.480;2022-08-11T21:52:04;22.10;47.50
1347;DHT22;667;48.796;9.480;2022-08-11T21:54:49;22.10;47.50
1347;DHT22;667;48.796;9.480;2022-08-11T21:57:35;22.00;47.60
1347;DHT22;667;48.796;9.480;2022-08-11T22:00:20;22.00;47.90
1347;DHT22;667;48.796;9.480;2022-08-11T22:03:04;22.00;48.00
1347;DHT22;667;48.796;9.480;2022-08-11T22:05:49;21.90;48.20
1347;DHT22;667;48.796;9.480;2022-08-11T22:08:33;21.90;48.60
1347;DHT22;667;48.796;9.480;2022-08-11T22:11:19;21.90;48.60
1347;DHT22;667;48.796;9.480;2022-08-11T22:14:03;21.90;48.50
1347;DHT22;667;48.796;9.480;2022-08-11T22:16:47;21.80;48.60
1347;DHT22;667;48.796;9.480;2022-08-11T22:19:32;21.80;48.70
1347;DHT22;667;48.796;9.480;2022-08-11T22:22:17;21.80;48.90
1347;DHT22;667;48.796;9.480;2022-08-11T22:25:02;21.70;48.90
1347;DHT22;667;48.796;9.480;2022-08-11T22:27:46;21.70;48.90
1347;DHT22;667;48.796;9.480;2022-08-11T22:30:31;21.70;48.80
1347;DHT22;667;48.796;9.480;2022-08-11T22:33:15;21.60;48.90
1347;DHT22;667;48.796;9.480;2022-08-11T22:36:00;21.60;49.10
1347;DHT22;667;48.796;9.480;2022-08-11T22:38:46;21.60;49.10
1347;DHT22;667;48.796;9.480;2022-08-11T22:41:31;21.60;49.20
1347;DHT22;667;48.796;9.480;2022-08-11T22:44:15;21.50;49.20
1347;DHT22;667;48.796;9.480;2022-08-11T22:47:02;21.50;49.30
1347;DHT22;667;48.796;9.480;2022-08-11T22:49:48;21.40;49.50
1347;DHT22;667;48.796;9.480;2022-08-11T22:52:34;21.40;49.60
1347;DHT22;667;48.796;9.480;2022-08-11T22:55:19;21.40;49.70
1347;DHT22;667;48.796;9.480;2022-08-11T22:58:05;21.30;49.70
1347;DHT22;667;48.796;9.480;2022-08-11T23:00:49;21.20;49.70
1347;DHT22;667;48.796;9.480;2022-08-11T23:03:34;21.20;50.00
1347;DHT22;667;48.796;9.480;2022-08-11T23:06:19;21.10;50.10
1347;DHT22;667;48.796;9.480;2022-08-11T23:09:04;21.10;50.30
1347;DHT22;667;48.796;9.480;2022-08-11T23:11:50;21.00;50.30
1347;DHT22;667;48.796;9.480;2022-08-11T23:14:36;21.00;50.40
1347;DHT22;667;48.796;9.480;2022-08-11T23:17:21;21.00;50.60
1347;DHT22;667;48.796;9.480;2022-08-11T23:20:07;21.00;50.60
1347;DHT22;667;48.796;9.480;2022-08-11T23:22:54;20.90;50.60
1347;DHT22;667;48.796;9.480;2022-08-11T23:25:38;20.90;50.80
1347;DHT22;667;48.796;9.480;2022-08-11T23:28:24;20.90;51.00
1347;DHT22;667;48.796;9.480;2022-08-11T23:31:10;20.80;51.30
1347;DHT22;667;48.796;9.480;2022-08-11T23:33:58;20.80;51.10
1347;DHT22;667;48.796;9.480;2022-08-11T23:36:43;20.80;51.10
1347;DHT22;667;48.796;9.480;2022-08-11T23:39:28;20.70;51.00
1347;DHT22;667;48.796;9.480;2022-08-11T23:42:12;20.70;50.90
1347;DHT22;667;48.796;9.480;2022-08-11T23:44:56;20.70;50.80
1347;DHT22;667;48.796;9.480;2022-08-11T23:47:41;20.70;50.40
1347;DHT22;667;48.796;9.480;2022-08-11T23:50:26;20.70;50.60
1347;DHT22;667;48.796;9.480;2022-08-11T23:53:12;20.70;50.80
1347;DHT22;667;48.796;9.480;2022-08-11T23:55:56;20.70;51.00
1347;DHT22;667;48.796;9.480;2022-08-11T23:58:41;20.70;51.00
